< < Back
Terminal Aerodrome Forecast


Current Version              Previous Versions:   1  2  3  4  5  6  7  8  9  

Terminal Aerodrome Forecast

515
FTUS44 KMRX 262336
TAFCHA
TAF
KCHA 262336Z 2700/2724 16006KT P6SM SCT020 OVC150
      TEMPO 2700/2702 BKN014
     FM270200 00000KT P6SM SCT020 OVC060
     FM270800 00000KT 6SM BR BKN025
     FM271400 20006KT P6SM BKN040
     FM271800 20006KT P6SM BKN250=



Latest METAR

303
SAUS80 KWBC 270300
MTRCHA
METAR KCHA 270253Z 18005KT 9SM FEW013 BKN250 20/19 A3019 RMK AO2 SLP218
T02000189 53019 $


USA.gov is the U.S. government's official web portal to all federal, state and local government web resources and services.